sensor_id;sensor_type;location;lat;lon;timestamp;temperature;humidity
67641;SHT31;54434;50.096;20.082;2023-07-30T00:01:14;17.91;81.71
67641;SHT31;54434;50.096;20.082;2023-07-30T00:03:50;17.88;81.79
67641;SHT31;54434;50.096;20.082;2023-07-30T00:06:27;17.86;81.80
67641;SHT31;54434;50.096;20.082;2023-07-30T00:09:03;17.83;81.88
67641;SHT31;54434;50.096;20.082;2023-07-30T00:11:40;17.78;82.05
67641;SHT31;54434;50.096;20.082;2023-07-30T00:14:16;17.74;82.18
67641;SHT31;54434;50.096;20.082;2023-07-30T00:16:53;17.69;82.34
67641;SHT31;54434;50.096;20.082;2023-07-30T00:19:29;17.67;82.41
67641;SHT31;54434;50.096;20.082;2023-07-30T00:22:07;17.63;82.56
67641;SHT31;54434;50.096;20.082;2023-07-30T00:24:44;17.58;82.59
67641;SHT31;54434;50.096;20.082;2023-07-30T00:27:20;17.57;82.59
67641;SHT31;54434;50.096;20.082;2023-07-30T00:29:57;17.54;82.60
67641;SHT31;54434;50.096;20.082;2023-07-30T00:32:33;17.52;82.59
67641;SHT31;54434;50.096;20.082;2023-07-30T00:35:17;17.49;82.61
67641;SHT31;54434;50.096;20.082;2023-07-30T00:37:54;17.48;82.72
67641;SHT31;54434;50.096;20.082;2023-07-30T00:40:30;17.47;82.81
67641;SHT31;54434;50.096;20.082;2023-07-30T00:43:12;17.46;82.80
67641;SHT31;54434;50.096;20.082;2023-07-30T00:45:48;17.46;82.77
67641;SHT31;54434;50.096;20.082;2023-07-30T00:48:25;17.46;82.71
67641;SHT31;54434;50.096;20.082;2023-07-30T00:51:02;17.45;82.83
67641;SHT31;54434;50.096;20.082;2023-07-30T00:53:39;17.45;82.90
67641;SHT31;54434;50.096;20.082;2023-07-30T00:56:16;17.46;82.94
67641;SHT31;54434;50.096;20.082;2023-07-30T00:58:53;17.45;83.09
67641;SHT31;54434;50.096;20.082;2023-07-30T01:01:30;17.44;83.14
67641;SHT31;54434;50.096;20.082;2023-07-30T01:04:12;17.44;83.26
67641;SHT31;54434;50.096;20.082;2023-07-30T01:06:50;17.42;83.32
67641;SHT31;54434;50.096;20.082;2023-07-30T01:09:27;17.40;83.30
67641;SHT31;54434;50.096;20.082;2023-07-30T01:12:04;17.37;83.40
67641;SHT31;54434;50.096;20.082;2023-07-30T01:14:42;17.36;83.50
67641;SHT31;54434;50.096;20.082;2023-07-30T01:17:20;17.32;83.47
67641;SHT31;54434;50.096;20.082;2023-07-30T01:19:58;17.28;83.49
67641;SHT31;54434;50.096;20.082;2023-07-30T01:22:35;17.24;83.62
67641;SHT31;54434;50.096;20.082;2023-07-30T01:25:11;17.22;83.67
67641;SHT31;54434;50.096;20.082;2023-07-30T01:27:51;17.22;83.63
67641;SHT31;54434;50.096;20.082;2023-07-30T01:30:37;17.21;83.72
67641;SHT31;54434;50.096;20.082;2023-07-30T01:33:17;17.19;83.80
67641;SHT31;54434;50.096;20.082;2023-07-30T01:35:54;17.18;83.84
67641;SHT31;54434;50.096;20.082;2023-07-30T01:38:34;17.21;83.89
67641;SHT31;54434;50.096;20.082;2023-07-30T01:41:12;17.29;83.83
67641;SHT31;54434;50.096;20.082;2023-07-30T01:43:49;17.37;83.50
67641;SHT31;54434;50.096;20.082;2023-07-30T01:46:26;17.46;83.25
67641;SHT31;54434;50.096;20.082;2023-07-30T01:49:02;17.56;82.92
67641;SHT31;54434;50.096;20.082;2023-07-30T01:51:38;17.74;82.73
67641;SHT31;54434;50.096;20.082;2023-07-30T01:54:15;17.91;82.26
67641;SHT31;54434;50.096;20.082;2023-07-30T01:56:51;18.08;81.90
67641;SHT31;54434;50.096;20.082;2023-07-30T01:59:28;18.32;81.31
67641;SHT31;54434;50.096;20.082;2023-07-30T02:02:05;18.47;80.89
67641;SHT31;54434;50.096;20.082;2023-07-30T02:04:41;18.65;80.33
67641;SHT31;54434;50.096;20.082;2023-07-30T02:07:18;18.74;80.01
67641;SHT31;54434;50.096;20.082;2023-07-30T02:09:54;18.84;79.76
67641;SHT31;54434;50.096;20.082;2023-07-30T02:12:31;18.88;79.52
67641;SHT31;54434;50.096;20.082;2023-07-30T02:15:08;18.91;79.47
67641;SHT31;54434;50.096;20.082;2023-07-30T02:17:45;19.03;79.16
67641;SHT31;54434;50.096;20.082;2023-07-30T02:20:22;19.08;78.89
67641;SHT31;54434;50.096;20.082;2023-07-30T02:22:59;19.07;78.86
67641;SHT31;54434;50.096;20.082;2023-07-30T02:25:35;19.08;78.81
67641;SHT31;54434;50.096;20.082;2023-07-30T02:28:13;19.04;78.89
67641;SHT31;54434;50.096;20.082;2023-07-30T02:30:50;19.00;78.93
67641;SHT31;54434;50.096;20.082;2023-07-30T02:33:27;19.00;78.92
67641;SHT31;54434;50.096;20.082;2023-07-30T02:36:03;18.99;78.86
67641;SHT31;54434;50.096;20.082;2023-07-30T02:38:40;18.98;78.79
67641;SHT31;54434;50.096;20.082;2023-07-30T02:41:17;18.88;78.91
67641;SHT31;54434;50.096;20.082;2023-07-30T02:43:53;18.77;79.09
67641;SHT31;54434;50.096;20.082;2023-07-30T02:46:29;18.59;79.36
67641;SHT31;54434;50.096;20.082;2023-07-30T02:49:06;18.44;79.64
67641;SHT31;54434;50.096;20.082;2023-07-30T02:51:43;18.32;79.84
67641;SHT31;54434;50.096;20.082;2023-07-30T02:54:20;18.19;80.00
67641;SHT31;54434;50.096;20.082;2023-07-30T02:56:57;18.11;80.21
67641;SHT31;54434;50.096;20.082;2023-07-30T02:59:33;18.02;80.31
67641;SHT31;54434;50.096;20.082;2023-07-30T03:02:10;17.93;80.45
67641;SHT31;54434;50.096;20.082;2023-07-30T03:04:46;17.89;80.74
67641;SHT31;54434;50.096;20.082;2023-07-30T03:07:26;17.97;80.96
67641;SHT31;54434;50.096;20.082;2023-07-30T03:10:03;18.05;80.70
67641;SHT31;54434;50.096;20.082;2023-07-30T03:12:40;18.04;80.71
67641;SHT31;54434;50.096;20.082;2023-07-30T03:15:17;18.03;80.87
67641;SHT31;54434;50.096;20.082;2023-07-30T03:17:53;18.05;80.98
67641;SHT31;54434;50.096;20.082;2023-07-30T03:20:29;18.12;80.95
67641;SHT31;54434;50.096;20.082;2023-07-30T03:23:06;18.15;80.98
67641;SHT31;54434;50.096;20.082;2023-07-30T03:25:42;18.18;81.14
67641;SHT31;54434;50.096;20.082;2023-07-30T03:28:19;18.28;81.10
67641;SHT31;54434;50.096;20.082;2023-07-30T03:30:55;18.37;80.88
67641;SHT31;54434;50.096;20.082;2023-07-30T03:33:32;18.42;80.86
67641;SHT31;54434;50.096;20.082;2023-07-30T03:36:11;18.53;80.74
67641;SHT31;54434;50.096;20.082;2023-07-30T03:38:47;18.65;80.50
67641;SHT31;54434;50.096;20.082;2023-07-30T03:41:24;18.68;80.44
67641;SHT31;54434;50.096;20.082;2023-07-30T03:44:00;18.67;80.43
67641;SHT31;54434;50.096;20.082;2023-07-30T03:46:37;18.62;80.56
67641;SHT31;54434;50.096;20.082;2023-07-30T03:49:13;18.61;80.64
67641;SHT31;54434;50.096;20.082;2023-07-30T03:51:50;18.69;80.55
67641;SHT31;54434;50.096;20.082;2023-07-30T03:54:33;18.85;80.30
67641;SHT31;54434;50.096;20.082;2023-07-30T03:57:09;18.89;80.17
67641;SHT31;54434;50.096;20.082;2023-07-30T03:59:46;19.05;80.19
67641;SHT31;54434;50.096;20.082;2023-07-30T04:02:22;19.22;79.68
67641;SHT31;54434;50.096;20.082;2023-07-30T04:04:59;19.26;79.35
67641;SHT31;54434;50.096;20.082;2023-07-30T04:07:37;19.21;79.39
67641;SHT31;54434;50.096;20.082;2023-07-30T04:10:13;19.18;79.41
67641;SHT31;54434;50.096;20.082;2023-07-30T04:12:50;19.19;79.15
67641;SHT31;54434;50.096;20.082;2023-07-30T04:15:27;19.18;79.11
67641;SHT31;54434;50.096;20.082;2023-07-30T04:18:04;19.24;78.89
67641;SHT31;54434;50.096;20.082;2023-07-30T04:20:40;19.31;78.83
67641;SHT31;54434;50.096;20.082;2023-07-30T04:23:17;19.49;78.33
67641;SHT31;54434;50.096;20.082;2023-07-30T04:25:53;19.65;77.74
67641;SHT31;54434;50.096;20.082;2023-07-30T04:28:29;19.72;77.31
67641;SHT31;54434;50.096;20.082;2023-07-30T04:31:06;19.76;77.27
67641;SHT31;54434;50.096;20.082;2023-07-30T04:33:43;19.82;76.94
67641;SHT31;54434;50.096;20.082;2023-07-30T04:36:19;19.84;76.84
67641;SHT31;54434;50.096;20.082;2023-07-30T04:38:56;19.88;76.57
67641;SHT31;54434;50.096;20.082;2023-07-30T04:41:36;19.98;76.30
67641;SHT31;54434;50.096;20.082;2023-07-30T04:44:13;20.01;76.06
67641;SHT31;54434;50.096;20.082;2023-07-30T04:46:49;20.05;75.98
67641;SHT31;54434;50.096;20.082;2023-07-30T04:49:26;20.15;75.67
67641;SHT31;54434;50.096;20.082;2023-07-30T04:52:03;20.22;75.55
67641;SHT31;54434;50.096;20.082;2023-07-30T04:54:40;20.26;75.43
67641;SHT31;54434;50.096;20.082;2023-07-30T04:57:17;20.36;75.13
67641;SHT31;54434;50.096;20.082;2023-07-30T04:59:54;20.43;74.90
67641;SHT31;54434;50.096;20.082;2023-07-30T05:02:31;20.50;74.67
67641;SHT31;54434;50.096;20.082;2023-07-30T05:05:08;20.60;74.39
67641;SHT31;54434;50.096;20.082;2023-07-30T05:07:45;20.67;74.11
67641;SHT31;54434;50.096;20.082;2023-07-30T05:10:21;20.71;74.04
67641;SHT31;54434;50.096;20.082;2023-07-30T05:12:58;20.78;73.93
67641;SHT31;54434;50.096;20.082;2023-07-30T05:15:34;20.86;73.45
67641;SHT31;54434;50.096;20.082;2023-07-30T05:18:11;20.87;73.63
67641;SHT31;54434;50.096;20.082;2023-07-30T05:20:48;20.96;73.12
67641;SHT31;54434;50.096;20.082;2023-07-30T05:23:24;21.19;72.71
67641;SHT31;54434;50.096;20.082;2023-07-30T05:26:01;21.59;71.78
67641;SHT31;54434;50.096;20.082;2023-07-30T05:28:37;21.94;70.93
67641;SHT31;54434;50.096;20.082;2023-07-30T05:31:14;22.15;70.28
67641;SHT31;54434;50.096;20.082;2023-07-30T05:33:50;22.35;69.85
67641;SHT31;54434;50.096;20.082;2023-07-30T05:36:26;22.52;69.23
67641;SHT31;54434;50.096;20.082;2023-07-30T05:39:03;22.66;69.16
67641;SHT31;54434;50.096;20.082;2023-07-30T05:41:39;22.86;67.92
67641;SHT31;54434;50.096;20.082;2023-07-30T05:44:15;23.17;67.56
67641;SHT31;54434;50.096;20.082;2023-07-30T05:46:52;23.40;66.63
67641;SHT31;54434;50.096;20.082;2023-07-30T05:49:28;23.57;65.73
67641;SHT31;54434;50.096;20.082;2023-07-30T05:52:06;23.75;65.31
67641;SHT31;54434;50.096;20.082;2023-07-30T05:54:42;23.96;64.62
67641;SHT31;54434;50.096;20.082;2023-07-30T05:57:19;24.25;63.81
67641;SHT31;54434;50.096;20.082;2023-07-30T05:59:55;24.46;63.61
67641;SHT31;54434;50.096;20.082;2023-07-30T06:02:31;24.70;63.16
67641;SHT31;54434;50.096;20.082;2023-07-30T06:05:09;24.89;62.33
67641;SHT31;54434;50.096;20.082;2023-07-30T06:07:45;24.95;61.76
67641;SHT31;54434;50.096;20.082;2023-07-30T06:10:22;24.78;61.42
67641;SHT31;54434;50.096;20.082;2023-07-30T06:12:58;24.60;61.49
67641;SHT31;54434;50.096;20.082;2023-07-30T06:15:35;24.46;61.61
67641;SHT31;54434;50.096;20.082;2023-07-30T06:18:12;24.37;61.77
67641;SHT31;54434;50.096;20.082;2023-07-30T06:20:48;24.26;62.25
67641;SHT31;54434;50.096;20.082;2023-07-30T06:23:25;24.33;62.21
67641;SHT31;54434;50.096;20.082;2023-07-30T06:26:01;24.32;61.82
67641;SHT31;54434;50.096;20.082;2023-07-30T06:28:38;24.40;61.65
67641;SHT31;54434;50.096;20.082;2023-07-30T06:31:14;24.52;60.92
67641;SHT31;54434;50.096;20.082;2023-07-30T06:33:50;24.83;60.79
67641;SHT31;54434;50.096;20.082;2023-07-30T06:36:27;25.42;59.91
67641;SHT31;54434;50.096;20.082;2023-07-30T06:39:03;26.00;58.21
67641;SHT31;54434;50.096;20.082;2023-07-30T06:41:40;26.54;57.33
67641;SHT31;54434;50.096;20.082;2023-07-30T06:44:16;27.08;56.37
67641;SHT31;54434;50.096;20.082;2023-07-30T06:46:53;27.56;55.37
67641;SHT31;54434;50.096;20.082;2023-07-30T06:49:29;27.94;54.62
67641;SHT31;54434;50.096;20.082;2023-07-30T06:52:07;28.33;54.13
67641;SHT31;54434;50.096;20.082;2023-07-30T06:54:44;28.58;52.81
67641;SHT31;54434;50.096;20.082;2023-07-30T06:57:20;28.83;52.47
67641;SHT31;54434;50.096;20.082;2023-07-30T06:59:57;29.04;51.60
67641;SHT31;54434;50.096;20.082;2023-07-30T07:02:34;29.27;50.66
67641;SHT31;54434;50.096;20.082;2023-07-30T07:05:11;29.45;50.12
67641;SHT31;54434;50.096;20.082;2023-07-30T07:07:47;29.62;49.75
67641;SHT31;54434;50.096;20.082;2023-07-30T07:10:24;29.70;49.48
67641;SHT31;54434;50.096;20.082;2023-07-30T07:13:00;29.67;49.25
67641;SHT31;54434;50.096;20.082;2023-07-30T07:15:37;29.80;48.72
67641;SHT31;54434;50.096;20.082;2023-07-30T07:18:13;29.78;48.16
67641;SHT31;54434;50.096;20.082;2023-07-30T07:20:49;29.74;48.21
67641;SHT31;54434;50.096;20.082;2023-07-30T07:23:26;29.85;48.40
67641;SHT31;54434;50.096;20.082;2023-07-30T07:26:02;30.03;47.89
67641;SHT31;54434;50.096;20.082;2023-07-30T07:28:39;30.08;47.75
67641;SHT31;54434;50.096;20.082;2023-07-30T07:31:15;29.93;46.95
67641;SHT31;54434;50.096;20.082;2023-07-30T07:33:52;29.65;47.29
67641;SHT31;54434;50.096;20.082;2023-07-30T07:36:29;29.43;47.91
67641;SHT31;54434;50.096;20.082;2023-07-30T07:39:07;29.32;48.29
67641;SHT31;54434;50.096;20.082;2023-07-30T07:41:43;29.33;48.64
67641;SHT31;54434;50.096;20.082;2023-07-30T07:44:20;29.43;48.54
67641;SHT31;54434;50.096;20.082;2023-07-30T07:46:56;29.44;48.33
67641;SHT31;54434;50.096;20.082;2023-07-30T07:49:33;29.49;48.37
67641;SHT31;54434;50.096;20.082;2023-07-30T07:52:10;29.63;48.32
67641;SHT31;54434;50.096;20.082;2023-07-30T07:54:46;29.66;48.25
67641;SHT31;54434;50.096;20.082;2023-07-30T07:57:23;29.47;48.43
67641;SHT31;54434;50.096;20.082;2023-07-30T08:00:01;29.36;48.08
67641;SHT31;54434;50.096;20.082;2023-07-30T08:02:45;29.25;48.99
67641;SHT31;54434;50.096;20.082;2023-07-30T08:05:22;29.18;48.75
67641;SHT31;54434;50.096;20.082;2023-07-30T08:07:59;29.13;48.39
67641;SHT31;54434;50.096;20.082;2023-07-30T08:10:39;29.01;48.74
67641;SHT31;54434;50.096;20.082;2023-07-30T08:13:18;29.12;48.73
67641;SHT31;54434;50.096;20.082;2023-07-30T08:15:55;29.20;48.39
67641;SHT31;54434;50.096;20.082;2023-07-30T08:18:31;29.05;48.69
67641;SHT31;54434;50.096;20.082;2023-07-30T08:21:07;29.11;49.10
67641;SHT31;54434;50.096;20.082;2023-07-30T08:23:45;29.21;49.13
67641;SHT31;54434;50.096;20.082;2023-07-30T08:26:22;29.18;48.13
67641;SHT31;54434;50.096;20.082;2023-07-30T08:28:58;28.96;48.30
67641;SHT31;54434;50.096;20.082;2023-07-30T08:31:35;28.81;48.81
67641;SHT31;54434;50.096;20.082;2023-07-30T08:34:11;28.76;48.99
67641;SHT31;54434;50.096;20.082;2023-07-30T08:36:48;28.90;49.40
67641;SHT31;54434;50.096;20.082;2023-07-30T08:39:24;29.14;49.22
67641;SHT31;54434;50.096;20.082;2023-07-30T08:42:00;29.26;48.70
67641;SHT31;54434;50.096;20.082;2023-07-30T08:44:38;29.33;48.56
67641;SHT31;54434;50.096;20.082;2023-07-30T08:47:14;29.45;48.39
67641;SHT31;54434;50.096;20.082;2023-07-30T08:49:51;29.28;48.22
67641;SHT31;54434;50.096;20.082;2023-07-30T08:52:27;29.27;47.86
67641;SHT31;54434;50.096;20.082;2023-07-30T08:55:09;29.18;48.38
67641;SHT31;54434;50.096;20.082;2023-07-30T08:57:46;29.09;49.24
67641;SHT31;54434;50.096;20.082;2023-07-30T09:00:25;29.01;48.69
67641;SHT31;54434;50.096;20.082;2023-07-30T09:03:07;28.85;49.39
67641;SHT31;54434;50.096;20.082;2023-07-30T09:05:49;28.84;48.82
67641;SHT31;54434;50.096;20.082;2023-07-30T09:08:26;28.72;49.03
67641;SHT31;54434;50.096;20.082;2023-07-30T09:11:09;28.60;49.23
67641;SHT31;54434;50.096;20.082;2023-07-30T09:13:46;28.62;49.19
67641;SHT31;54434;50.096;20.082;2023-07-30T09:16:27;28.69;49.17
67641;SHT31;54434;50.096;20.082;2023-07-30T09:19:05;28.60;48.84
67641;SHT31;54434;50.096;20.082;2023-07-30T09:21:42;28.53;50.26
67641;SHT31;54434;50.096;20.082;2023-07-30T09:24:23;28.59;50.05
67641;SHT31;54434;50.096;20.082;2023-07-30T09:27:01;28.62;49.30
67641;SHT31;54434;50.096;20.082;2023-07-30T09:29:39;28.52;49.13
67641;SHT31;54434;50.096;20.082;2023-07-30T09:32:31;28.43;48.50
67641;SHT31;54434;50.096;20.082;2023-07-30T09:35:10;28.34;49.23
67641;SHT31;54434;50.096;20.082;2023-07-30T09:37:46;28.24;49.73
67641;SHT31;54434;50.096;20.082;2023-07-30T09:40:30;28.34;50.30
67641;SHT31;54434;50.096;20.082;2023-07-30T09:43:08;28.34;49.18
67641;SHT31;54434;50.096;20.082;2023-07-30T09:45:46;28.22;49.02
67641;SHT31;54434;50.096;20.082;2023-07-30T09:48:24;28.23;49.11
67641;SHT31;54434;50.096;20.082;2023-07-30T09:51:02;28.25;49.08
67641;SHT31;54434;50.096;20.082;2023-07-30T09:53:39;28.09;47.63
67641;SHT31;54434;50.096;20.082;2023-07-30T09:56:16;27.97;49.34
67641;SHT31;54434;50.096;20.082;2023-07-30T09:58:52;28.08;48.73
67641;SHT31;54434;50.096;20.082;2023-07-30T10:01:29;28.09;48.36
67641;SHT31;54434;50.096;20.082;2023-07-30T10:04:10;28.14;48.60
67641;SHT31;54434;50.096;20.082;2023-07-30T10:06:51;28.13;47.60
67641;SHT31;54434;50.096;20.082;2023-07-30T10:09:35;27.98;47.15
67641;SHT31;54434;50.096;20.082;2023-07-30T10:12:16;27.89;47.73
67641;SHT31;54434;50.096;20.082;2023-07-30T10:14:58;27.92;47.53
67641;SHT31;54434;50.096;20.082;2023-07-30T10:17:35;28.02;48.08
67641;SHT31;54434;50.096;20.082;2023-07-30T10:20:23;28.03;47.62
67641;SHT31;54434;50.096;20.082;2023-07-30T10:23:01;27.97;47.69
67641;SHT31;54434;50.096;20.082;2023-07-30T10:25:48;27.96;48.00
67641;SHT31;54434;50.096;20.082;2023-07-30T10:28:34;27.94;48.13
67641;SHT31;54434;50.096;20.082;2023-07-30T10:31:15;28.01;48.24
67641;SHT31;54434;50.096;20.082;2023-07-30T10:33:53;28.01;47.58
67641;SHT31;54434;50.096;20.082;2023-07-30T10:36:36;28.01;48.19
67641;SHT31;54434;50.096;20.082;2023-07-30T10:39:19;27.98;48.29
67641;SHT31;54434;50.096;20.082;2023-07-30T10:42:01;27.97;48.11
67641;SHT31;54434;50.096;20.082;2023-07-30T10:44:43;27.87;47.81
67641;SHT31;54434;50.096;20.082;2023-07-30T10:47:20;27.92;48.61
67641;SHT31;54434;50.096;20.082;2023-07-30T10:50:09;28.06;48.34
67641;SHT31;54434;50.096;20.082;2023-07-30T10:52:47;28.06;48.06
67641;SHT31;54434;50.096;20.082;2023-07-30T10:55:30;28.06;48.44
67641;SHT31;54434;50.096;20.082;2023-07-30T10:58:08;28.05;47.56
67641;SHT31;54434;50.096;20.082;2023-07-30T11:00:44;28.04;47.84
67641;SHT31;54434;50.096;20.082;2023-07-30T11:03:21;28.01;47.97
67641;SHT31;54434;50.096;20.082;2023-07-30T11:06:01;27.99;47.92
67641;SHT31;54434;50.096;20.082;2023-07-30T11:08:40;28.08;48.21
67641;SHT31;54434;50.096;20.082;2023-07-30T11:11:17;28.20;47.93
67641;SHT31;54434;50.096;20.082;2023-07-30T11:13:56;28.33;47.86
67641;SHT31;54434;50.096;20.082;2023-07-30T11:16:33;28.43;48.41
67641;SHT31;54434;50.096;20.082;2023-07-30T11:19:11;28.52;48.12
67641;SHT31;54434;50.096;20.082;2023-07-30T11:21:48;28.57;47.63
67641;SHT31;54434;50.096;20.082;2023-07-30T11:24:36;28.60;47.10
67641;SHT31;54434;50.096;20.082;2023-07-30T11:27:12;28.64;46.56
67641;SHT31;54434;50.096;20.082;2023-07-30T11:29:56;28.64;46.82
67641;SHT31;54434;50.096;20.082;2023-07-30T11:32:35;28.67;46.32
67641;SHT31;54434;50.096;20.082;2023-07-30T11:35:11;28.75;46.80
67641;SHT31;54434;50.096;20.082;2023-07-30T11:37:49;28.78;46.48
67641;SHT31;54434;50.096;20.082;2023-07-30T11:40:26;28.77;46.51
67641;SHT31;54434;50.096;20.082;2023-07-30T11:43:02;28.69;46.10
67641;SHT31;54434;50.096;20.082;2023-07-30T11:45:41;28.62;46.03
67641;SHT31;54434;50.096;20.082;2023-07-30T11:48:23;28.57;46.10
67641;SHT31;54434;50.096;20.082;2023-07-30T11:51:00;28.58;46.73
67641;SHT31;54434;50.096;20.082;2023-07-30T11:53:47;28.66;46.29
67641;SHT31;54434;50.096;20.082;2023-07-30T11:56:26;28.67;46.22
67641;SHT31;54434;50.096;20.082;2023-07-30T11:59:06;28.59;45.63
67641;SHT31;54434;50.096;20.082;2023-07-30T12:01:42;28.56;45.90
67641;SHT31;54434;50.096;20.082;2023-07-30T12:04:19;28.54;46.52
67641;SHT31;54434;50.096;20.082;2023-07-30T12:06:56;28.53;47.11
67641;SHT31;54434;50.096;20.082;2023-07-30T12:09:37;28.43;47.37
67641;SHT31;54434;50.096;20.082;2023-07-30T12:12:13;28.40;46.70
67641;SHT31;54434;50.096;20.082;2023-07-30T12:14:55;28.29;46.83
67641;SHT31;54434;50.096;20.082;2023-07-30T12:17:31;28.26;47.28
67641;SHT31;54434;50.096;20.082;2023-07-30T12:20:10;28.14;47.15
67641;SHT31;54434;50.096;20.082;2023-07-30T12:22:47;27.99;47.67
67641;SHT31;54434;50.096;20.082;2023-07-30T12:25:23;27.93;48.40
67641;SHT31;54434;50.096;20.082;2023-07-30T12:28:00;27.92;47.92
67641;SHT31;54434;50.096;20.082;2023-07-30T12:30:37;27.91;47.82
67641;SHT31;54434;50.096;20.082;2023-07-30T12:33:13;27.73;48.80
67641;SHT31;54434;50.096;20.082;2023-07-30T12:35:50;27.59;49.38
67641;SHT31;54434;50.096;20.082;2023-07-30T12:38:27;27.55;49.74
67641;SHT31;54434;50.096;20.082;2023-07-30T12:41:03;27.47;49.28
67641;SHT31;54434;50.096;20.082;2023-07-30T12:43:39;27.36;49.37
67641;SHT31;54434;50.096;20.082;2023-07-30T12:46:16;27.23;50.14
67641;SHT31;54434;50.096;20.082;2023-07-30T12:48:53;27.13;50.15
67641;SHT31;54434;50.096;20.082;2023-07-30T12:51:34;27.05;50.63
67641;SHT31;54434;50.096;20.082;2023-07-30T12:54:11;26.94;51.15
67641;SHT31;54434;50.096;20.082;2023-07-30T12:56:48;26.81;51.92
67641;SHT31;54434;50.096;20.082;2023-07-30T12:59:25;26.70;51.57
67641;SHT31;54434;50.096;20.082;2023-07-30T13:02:03;26.56;51.70
67641;SHT31;54434;50.096;20.082;2023-07-30T13:04:40;26.44;51.57
67641;SHT31;54434;50.096;20.082;2023-07-30T13:07:16;26.36;52.29
67641;SHT31;54434;50.096;20.082;2023-07-30T13:10:02;26.32;52.91
67641;SHT31;54434;50.096;20.082;2023-07-30T13:12:41;26.30;53.09
67641;SHT31;54434;50.096;20.082;2023-07-30T13:15:18;26.27;53.39
67641;SHT31;54434;50.096;20.082;2023-07-30T13:17:55;26.18;52.92
67641;SHT31;54434;50.096;20.082;2023-07-30T13:20:31;26.13;53.15
67641;SHT31;54434;50.096;20.082;2023-07-30T13:23:08;26.15;53.87
67641;SHT31;54434;50.096;20.082;2023-07-30T13:25:44;26.16;54.02
67641;SHT31;54434;50.096;20.082;2023-07-30T13:28:21;26.18;54.02
67641;SHT31;54434;50.096;20.082;2023-07-30T13:30:57;26.18;53.86
67641;SHT31;54434;50.096;20.082;2023-07-30T13:33:34;26.16;53.55
67641;SHT31;54434;50.096;20.082;2023-07-30T13:36:10;26.10;53.08
67641;SHT31;54434;50.096;20.082;2023-07-30T13:38:47;26.13;53.48
67641;SHT31;54434;50.096;20.082;2023-07-30T13:41:24;26.19;53.05
67641;SHT31;54434;50.096;20.082;2023-07-30T13:44:00;26.27;53.21
67641;SHT31;54434;50.096;20.082;2023-07-30T13:46:37;26.34;52.88
67641;SHT31;54434;50.096;20.082;2023-07-30T13:49:14;26.41;52.52
67641;SHT31;54434;50.096;20.082;2023-07-30T13:51:51;26.43;52.16
67641;SHT31;54434;50.096;20.082;2023-07-30T13:54:27;26.48;52.10
67641;SHT31;54434;50.096;20.082;2023-07-30T13:57:05;26.50;52.15
67641;SHT31;54434;50.096;20.082;2023-07-30T13:59:42;26.56;52.15
67641;SHT31;54434;50.096;20.082;2023-07-30T14:02:19;26.60;51.79
67641;SHT31;54434;50.096;20.082;2023-07-30T14:04:56;26.69;51.61
67641;SHT31;54434;50.096;20.082;2023-07-30T14:07:33;26.73;50.98
67641;SHT31;54434;50.096;20.082;2023-07-30T14:10:10;26.76;51.50
67641;SHT31;54434;50.096;20.082;2023-07-30T14:12:46;26.69;50.93
67641;SHT31;54434;50.096;20.082;2023-07-30T14:15:23;26.70;51.23
67641;SHT31;54434;50.096;20.082;2023-07-30T14:17:59;26.73;51.46
67641;SHT31;54434;50.096;20.082;2023-07-30T14:20:37;26.66;51.97
67641;SHT31;54434;50.096;20.082;2023-07-30T14:23:13;26.58;51.82
67641;SHT31;54434;50.096;20.082;2023-07-30T14:25:50;26.49;51.76
67641;SHT31;54434;50.096;20.082;2023-07-30T14:28:26;26.40;51.83
67641;SHT31;54434;50.096;20.082;2023-07-30T14:31:03;26.32;51.97
67641;SHT31;54434;50.096;20.082;2023-07-30T14:33:40;26.29;51.96
67641;SHT31;54434;50.096;20.082;2023-07-30T14:36:17;26.21;52.17
67641;SHT31;54434;50.096;20.082;2023-07-30T14:38:53;26.13;52.40
67641;SHT31;54434;50.096;20.082;2023-07-30T14:41:30;26.06;52.70
67641;SHT31;54434;50.096;20.082;2023-07-30T14:44:07;25.97;52.44
67641;SHT31;54434;50.096;20.082;2023-07-30T14:46:43;25.85;52.72
67641;SHT31;54434;50.096;20.082;2023-07-30T14:49:20;25.81;53.30
67641;SHT31;54434;50.096;20.082;2023-07-30T14:51:56;25.77;53.04
67641;SHT31;54434;50.096;20.082;2023-07-30T14:54:34;25.75;53.21
67641;SHT31;54434;50.096;20.082;2023-07-30T14:57:10;25.74;52.76
67641;SHT31;54434;50.096;20.082;2023-07-30T14:59:47;25.73;53.13
67641;SHT31;54434;50.096;20.082;2023-07-30T15:02:24;25.73;53.68
67641;SHT31;54434;50.096;20.082;2023-07-30T15:05:01;25.75;53.38
67641;SHT31;54434;50.096;20.082;2023-07-30T15:07:39;25.70;52.56
67641;SHT31;54434;50.096;20.082;2023-07-30T15:10:16;25.68;52.77
67641;SHT31;54434;50.096;20.082;2023-07-30T15:12:52;25.63;52.96
67641;SHT31;54434;50.096;20.082;2023-07-30T15:15:29;25.60;52.90
67641;SHT31;54434;50.096;20.082;2023-07-30T15:18:05;25.64;53.32
67641;SHT31;54434;50.096;20.082;2023-07-30T15:20:42;25.64;53.48
67641;SHT31;54434;50.096;20.082;2023-07-30T15:23:18;25.58;53.13
67641;SHT31;54434;50.096;20.082;2023-07-30T15:25:55;25.51;53.37
67641;SHT31;54434;50.096;20.082;2023-07-30T15:28:31;25.45;53.15
67641;SHT31;54434;50.096;20.082;2023-07-30T15:31:07;25.44;53.61
67641;SHT31;54434;50.096;20.082;2023-07-30T15:33:45;25.42;53.75
67641;SHT31;54434;50.096;20.082;2023-07-30T15:36:24;25.46;53.78
67641;SHT31;54434;50.096;20.082;2023-07-30T15:39:01;25.45;53.12
67641;SHT31;54434;50.096;20.082;2023-07-30T15:41:37;25.44;53.08
67641;SHT31;54434;50.096;20.082;2023-07-30T15:44:14;25.42;52.58
67641;SHT31;54434;50.096;20.082;2023-07-30T15:46:50;25.43;52.99
67641;SHT31;54434;50.096;20.082;2023-07-30T15:49:27;25.52;52.65
67641;SHT31;54434;50.096;20.082;2023-07-30T15:52:06;25.62;52.87
67641;SHT31;54434;50.096;20.082;2023-07-30T15:54:42;25.71;52.55
67641;SHT31;54434;50.096;20.082;2023-07-30T15:57:19;25.80;52.08
67641;SHT31;54434;50.096;20.082;2023-07-30T15:59:55;25.86;52.37
67641;SHT31;54434;50.096;20.082;2023-07-30T16:02:42;25.93;52.49
67641;SHT31;54434;50.096;20.082;2023-07-30T16:05:19;25.95;51.82
67641;SHT31;54434;50.096;20.082;2023-07-30T16:07:56;25.97;51.80
67641;SHT31;54434;50.096;20.082;2023-07-30T16:10:33;25.98;51.63
67641;SHT31;54434;50.096;20.082;2023-07-30T16:13:09;26.00;51.85
67641;SHT31;54434;50.096;20.082;2023-07-30T16:15:46;26.08;51.69
67641;SHT31;54434;50.096;20.082;2023-07-30T16:18:22;26.12;51.78